createdAt,value
2019-02-08T00:00:25.573Z,10.17
2019-02-08T00:02:53.942Z,14.67
2019-02-08T00:05:22.317Z,10.63
2019-02-08T00:07:50.693Z,10.43
2019-02-08T00:10:20.222Z,13.77
2019-02-08T00:12:48.594Z,15.37
2019-02-08T00:15:22.406Z,17.03
2019-02-08T00:17:50.771Z,12.70
2019-02-08T00:20:22.894Z,13.53
2019-02-08T00:22:51.264Z,15.73
2019-02-08T00:25:23.378Z,13.40
2019-02-08T00:27:51.744Z,11.17
2019-02-08T00:30:28.089Z,10.57
2019-02-08T00:33:15.885Z,13.60
2019-02-08T00:35:44.289Z,12.80
2019-02-08T00:38:12.649Z,13.50
2019-02-08T00:40:41.313Z,16.03
2019-02-08T00:43:09.872Z,17.53
2019-02-08T00:45:38.192Z,11.17
2019-02-08T00:48:06.548Z,11.40
2019-02-08T00:50:34.917Z,13.33
2019-02-08T00:53:03.278Z,8.90
2019-02-08T00:55:31.660Z,17.63
2019-02-08T00:58:00.315Z,12.57
2019-02-08T01:00:28.714Z,11.77
2019-02-08T01:02:57.061Z,11.30
2019-02-08T01:05:26.777Z,15.73
2019-02-08T01:07:55.422Z,13.77
2019-02-08T01:10:33.573Z,11.67
2019-02-08T01:13:02.726Z,11.03
2019-02-08T01:15:32.028Z,11.90
2019-02-08T01:18:00.398Z,13.40
2019-02-08T01:20:28.786Z,14.73
2019-02-08T01:22:57.145Z,17.53
2019-02-08T01:25:27.184Z,11.70
2019-02-08T01:27:55.472Z,14.83
2019-02-08T01:30:33.733Z,12.80
2019-02-08T01:33:02.100Z,15.00
2019-02-08T01:35:30.645Z,10.50
2019-02-08T01:38:00.062Z,12.60
2019-02-08T01:40:34.093Z,13.57
2019-02-08T01:43:02.565Z,12.83
2019-02-08T01:45:32.500Z,8.27
2019-02-08T01:48:00.931Z,13.90
2019-02-08T01:50:30.562Z,14.33
2019-02-08T01:52:59.246Z,9.30
2019-02-08T01:55:27.617Z,12.43
2019-02-08T01:57:56.371Z,9.07
2019-02-08T02:00:30.393Z,20.30
2019-02-08T02:02:58.777Z,13.80
2019-02-08T02:05:27.128Z,12.97
2019-02-08T02:07:55.554Z,12.47
2019-02-08T02:10:30.168Z,14.97
2019-02-08T02:12:58.625Z,12.80
2019-02-08T02:15:26.988Z,16.43
2019-02-08T02:17:55.495Z,12.27
2019-02-08T02:20:26.339Z,18.03
2019-02-08T02:22:54.699Z,12.80
2019-02-08T02:25:23.279Z,14.00
2019-02-08T02:27:51.548Z,16.27
2019-02-08T02:30:34.069Z,18.07
2019-02-08T02:33:02.530Z,12.40
2019-02-08T02:35:30.822Z,10.07
2019-02-08T02:37:59.179Z,21.20
2019-02-08T02:40:27.568Z,14.87
2019-02-08T02:42:55.860Z,18.53
2019-02-08T02:45:32.296Z,16.00
2019-02-08T02:48:00.667Z,13.03
2019-02-08T02:50:28.973Z,15.00
2019-02-08T02:52:57.345Z,15.53
2019-02-08T02:55:27.776Z,12.47
2019-02-08T02:57:56.230Z,20.97
2019-02-08T03:00:30.175Z,17.90
2019-02-08T03:02:59.183Z,11.67
2019-02-08T03:05:28.299Z,17.13
2019-02-08T03:07:56.586Z,20.60
2019-02-08T03:10:24.883Z,13.17
2019-02-08T03:12:53.178Z,15.50
2019-02-08T03:15:22.712Z,15.13
2019-02-08T03:17:51.339Z,11.17
2019-02-08T03:20:21.143Z,13.93
2019-02-08T03:22:49.464Z,15.27
2019-02-08T03:25:23.069Z,11.60
2019-02-08T03:27:51.473Z,16.67
2019-02-08T03:30:23.965Z,15.93
2019-02-08T03:32:52.333Z,13.27
2019-02-08T03:35:22.750Z,20.77
2019-02-08T03:37:50.990Z,10.87
2019-02-08T03:40:31.018Z,21.17
2019-02-08T03:42:59.319Z,11.93
2019-02-08T03:45:29.299Z,15.97
2019-02-08T03:47:57.625Z,15.83
2019-02-08T03:50:25.940Z,15.33
2019-02-08T03:52:55.065Z,12.10
2019-02-08T03:55:24.267Z,14.57
2019-02-08T03:57:52.657Z,14.33
2019-02-08T04:00:31.490Z,17.83
2019-02-08T04:02:59.892Z,20.07
2019-02-08T04:05:28.166Z,19.50
2019-02-08T04:07:56.618Z,18.90
2019-02-08T04:10:25.050Z,22.37
2019-02-08T04:12:53.427Z,17.80
2019-02-08T04:15:23.514Z,15.93
2019-02-08T04:17:51.912Z,14.67
2019-02-08T04:20:39.640Z,15.33
2019-02-08T04:23:08.014Z,17.07
2019-02-08T04:25:36.386Z,16.17
2019-02-08T04:28:04.771Z,21.17
2019-02-08T04:30:33.165Z,12.87
2019-02-08T04:33:02.559Z,20.70
2019-02-08T04:35:30.928Z,16.83
2019-02-08T04:37:59.298Z,16.83
2019-02-08T04:40:27.988Z,14.20
2019-02-08T04:42:56.371Z,20.53
2019-02-08T04:45:24.732Z,20.60
2019-02-08T04:47:53.113Z,19.47
2019-02-08T04:50:23.235Z,18.57
2019-02-08T04:52:51.624Z,23.43
2019-02-08T04:55:19.980Z,19.07
2019-02-08T04:57:48.352Z,20.50
2019-02-08T05:00:21.864Z,26.53
2019-02-08T05:02:50.526Z,17.47
2019-02-08T05:05:18.896Z,24.17
2019-02-08T05:07:47.269Z,24.70
2019-02-08T05:10:25.233Z,17.20
2019-02-08T05:12:53.529Z,19.63
2019-02-08T05:15:23.139Z,25.63
2019-02-08T05:17:51.737Z,27.83
2019-02-08T05:20:25.291Z,24.93
2019-02-08T05:22:53.751Z,22.83
2019-02-08T05:25:22.178Z,17.83
2019-02-08T05:27:52.490Z,19.40
2019-02-08T05:30:36.819Z,19.53
2019-02-08T05:33:05.472Z,19.03
2019-02-08T05:35:33.870Z,19.20
2019-02-08T05:38:02.222Z,23.30
2019-02-08T05:40:30.565Z,27.17
2019-02-08T05:42:58.916Z,24.83
2019-02-08T05:45:27.335Z,21.53
2019-02-08T05:47:55.688Z,20.20
2019-02-08T05:50:28.958Z,21.80
2019-02-08T05:52:57.501Z,30.77
2019-02-08T05:55:33.474Z,22.20
2019-02-08T05:58:01.867Z,25.27
2019-02-08T06:00:37.446Z,25.93
2019-02-08T06:03:06.013Z,31.27
2019-02-08T06:05:34.382Z,20.70
2019-02-08T06:08:02.827Z,25.47
2019-02-08T06:10:31.236Z,16.53
2019-02-08T06:12:59.583Z,19.93
2019-02-08T06:15:27.895Z,20.50
2019-02-08T06:17:56.285Z,22.37
2019-02-08T06:20:25.981Z,26.80
2019-02-08T06:22:54.662Z,20.97
2019-02-08T06:25:23.667Z,27.83
2019-02-08T06:27:52.292Z,23.17
2019-02-08T06:30:25.778Z,28.57
2019-02-08T06:32:54.695Z,25.33
2019-02-08T06:35:24.938Z,21.23
2019-02-08T06:37:53.434Z,35.47
2019-02-08T06:40:28.144Z,26.97
2019-02-08T06:42:56.900Z,23.27
2019-02-08T06:45:26.490Z,24.73
2019-02-08T06:47:55.304Z,24.83
2019-02-08T06:50:26.736Z,20.67
2019-02-08T06:52:56.244Z,23.87
2019-02-08T06:55:24.854Z,23.70
2019-02-08T06:58:04.350Z,24.40
2019-02-08T07:00:34.434Z,25.20
2019-02-08T07:03:23.103Z,23.07
2019-02-08T07:05:53.166Z,19.10
2019-02-08T07:08:39.630Z,25.70
2019-02-08T07:11:09.622Z,26.43
2019-02-08T07:13:51.917Z,23.70
2019-02-08T07:16:21.968Z,23.63
2019-02-08T07:19:07.091Z,25.03
2019-02-08T07:21:37.056Z,21.67
2019-02-08T07:24:13.284Z,27.30
2019-02-08T07:26:55.644Z,24.37
2019-02-08T07:29:25.647Z,20.43
2019-02-08T07:31:55.700Z,23.40
2019-02-08T07:34:28.429Z,21.37
2019-02-08T07:36:58.466Z,25.77
2019-02-08T07:39:33.114Z,25.70
2019-02-08T07:42:11.786Z,27.03
2019-02-08T07:44:41.843Z,26.07
2019-02-08T07:47:11.883Z,23.13
2019-02-08T07:49:44.941Z,16.30
2019-02-08T07:52:20.658Z,19.50
2019-02-08T07:54:50.643Z,19.07
2019-02-08T07:57:20.610Z,19.50
2019-02-08T08:00:08.529Z,23.37
2019-02-08T08:02:41.268Z,20.23
2019-02-08T08:05:11.288Z,25.10
2019-02-08T08:07:43.967Z,21.30
2019-02-08T08:10:28.321Z,28.57
2019-02-08T08:13:04.375Z,21.97
2019-02-08T08:15:37.178Z,27.80
2019-02-08T08:18:12.885Z,29.13
2019-02-08T08:20:49.481Z,23.13
2019-02-08T08:23:19.498Z,25.07
2019-02-08T08:26:11.776Z,25.17
2019-02-08T08:28:59.947Z,26.67
2019-02-08T08:31:29.976Z,25.07
2019-02-08T08:34:07.436Z,21.33
2019-02-08T08:37:04.839Z,25.63
2019-02-08T08:40:02.091Z,20.03
2019-02-08T08:42:51.049Z,26.43
2019-02-08T08:45:31.607Z,22.40
2019-02-08T08:48:29.029Z,23.23
2019-02-08T08:51:06.406Z,21.77
2019-02-08T08:53:53.185Z,22.63
2019-02-08T08:56:33.693Z,21.40
2019-02-08T08:59:24.680Z,20.20
2019-02-08T09:02:11.523Z,23.20
2019-02-08T09:05:16.762Z,19.27
2019-02-08T09:07:54.319Z,17.93
2019-02-08T09:10:37.919Z,16.50
2019-02-08T09:13:21.368Z,26.50
2019-02-08T09:16:09.524Z,18.90
2019-02-08T09:18:59.099Z,14.40
2019-02-08T09:21:42.699Z,20.77
2019-02-08T09:24:31.704Z,12.97
2019-02-08T09:27:15.101Z,16.50
2019-02-08T09:30:06.326Z,12.63
2019-02-08T09:33:07.166Z,14.53
2019-02-08T09:35:55.397Z,24.40
2019-02-08T09:38:43.565Z,18.23
2019-02-08T09:41:30.149Z,15.97
2019-02-08T09:44:28.418Z,17.20
2019-02-08T09:47:06.120Z,17.90
2019-02-08T09:49:40.482Z,16.73
2019-02-08T09:52:28.643Z,16.27
2019-02-08T09:55:03.071Z,21.80
2019-02-08T09:58:08.451Z,21.40
2019-02-08T10:01:06.084Z,17.27
2019-02-08T10:03:43.699Z,13.63
2019-02-08T10:06:30.328Z,16.03
2019-02-08T10:09:30.529Z,12.00
2019-02-08T10:12:17.015Z,15.87
2019-02-08T10:15:12.577Z,13.17
2019-02-08T10:18:00.993Z,16.10
2019-02-08T10:20:44.670Z,12.20
2019-02-08T10:23:34.511Z,16.70
2019-02-08T10:26:39.880Z,15.53
2019-02-08T10:29:28.979Z,16.47
2019-02-08T10:32:20.346Z,17.57
2019-02-08T10:35:14.604Z,16.43
2019-02-08T10:37:54.850Z,22.83
2019-02-08T10:40:41.799Z,14.33
2019-02-08T10:43:36.369Z,18.13
2019-02-08T10:46:32.232Z,17.97
2019-02-08T10:49:24.462Z,18.20
2019-02-08T10:52:18.796Z,16.37
2019-02-08T10:55:11.736Z,15.70
2019-02-08T10:58:00.123Z,27.23
2019-02-08T11:00:40.864Z,13.23
2019-02-08T11:03:41.334Z,12.73
2019-02-08T11:06:30.866Z,14.93
2019-02-08T11:09:31.208Z,19.50
2019-02-08T11:12:23.789Z,19.97
2019-02-08T11:15:13.267Z,11.67
2019-02-08T11:17:59.787Z,17.83
2019-02-08T11:20:28.578Z,12.40
2019-02-08T11:22:56.944Z,23.77
2019-02-08T11:25:25.650Z,23.27
2019-02-08T11:27:54.158Z,12.87
2019-02-08T11:30:22.527Z,18.40
2019-02-08T11:32:50.900Z,16.53
2019-02-08T11:35:19.286Z,20.70
2019-02-08T11:37:47.653Z,18.83
2019-02-08T11:40:22.128Z,17.17
2019-02-08T11:42:50.491Z,26.47
2019-02-08T11:45:18.884Z,19.77
2019-02-08T11:47:47.271Z,13.80
2019-02-08T11:50:20.745Z,20.93
2019-02-08T11:52:49.174Z,23.50
2019-02-08T11:55:17.582Z,19.40
2019-02-08T11:57:45.957Z,23.47
2019-02-08T12:00:18.159Z,12.93
2019-02-08T12:02:46.538Z,19.67
2019-02-08T12:05:14.927Z,17.43
2019-02-08T12:07:43.225Z,17.57
2019-02-08T12:10:11.596Z,11.23
2019-02-08T12:12:40.003Z,17.57
2019-02-08T12:15:19.376Z,18.87
2019-02-08T12:17:47.775Z,9.40
2019-02-08T12:20:16.134Z,16.33
2019-02-08T12:22:44.508Z,20.33
2019-02-08T12:25:16.468Z,16.93
2019-02-08T12:27:44.837Z,15.77
2019-02-08T12:30:22.312Z,19.07
2019-02-08T12:32:50.727Z,18.03
2019-02-08T12:35:19.063Z,21.43
2019-02-08T12:37:47.575Z,14.37
2019-02-08T12:40:16.384Z,12.67
2019-02-08T12:42:44.725Z,14.77
2019-02-08T12:45:15.889Z,17.07
2019-02-08T12:47:44.222Z,10.67
2019-02-08T12:50:18.015Z,20.60
2019-02-08T12:52:46.442Z,17.00
2019-02-08T12:55:19.430Z,13.83
2019-02-08T12:57:48.197Z,11.47
2019-02-08T13:00:21.433Z,12.73
2019-02-08T13:02:49.761Z,13.67
2019-02-08T13:05:18.587Z,17.80
2019-02-08T13:07:47.042Z,13.67
2019-02-08T13:10:18.646Z,7.63
2019-02-08T13:12:47.044Z,14.03
2019-02-08T13:15:15.976Z,14.93
2019-02-08T13:17:44.983Z,11.97
2019-02-08T13:20:16.572Z,17.27
2019-02-08T13:22:49.131Z,12.53
2019-02-08T13:25:18.124Z,11.90
2019-02-08T13:27:47.547Z,14.00
2019-02-08T13:30:35.023Z,10.27
2019-02-08T13:33:03.422Z,8.77
2019-02-08T13:35:31.813Z,19.73
2019-02-08T13:38:00.473Z,15.73
2019-02-08T13:40:30.044Z,15.23
2019-02-08T13:42:58.413Z,12.30
2019-02-08T13:45:26.810Z,14.63
2019-02-08T13:47:55.614Z,9.30
2019-02-08T13:50:29.697Z,13.47
2019-02-08T13:52:58.187Z,9.67
2019-02-08T13:55:26.506Z,8.60
2019-02-08T13:57:54.889Z,8.80
2019-02-08T14:00:37.675Z,9.63
2019-02-08T14:03:07.573Z,11.13
2019-02-08T14:05:35.922Z,11.00
2019-02-08T14:08:05.045Z,12.50
2019-02-08T14:10:33.435Z,12.73
2019-02-08T14:13:01.734Z,13.23
2019-02-08T14:15:30.194Z,9.20
2019-02-08T14:17:58.586Z,12.27
2019-02-08T14:20:28.152Z,8.67
2019-02-08T14:22:56.521Z,13.90
2019-02-08T14:25:24.894Z,14.47
2019-02-08T14:27:53.283Z,14.13
2019-02-08T14:30:33.405Z,10.80
2019-02-08T14:33:01.836Z,11.20
2019-02-08T14:35:30.225Z,11.40
2019-02-08T14:38:00.192Z,13.33
2019-02-08T14:40:30.149Z,11.17
2019-02-08T14:42:58.495Z,9.83
2019-02-08T14:45:26.822Z,15.27
2019-02-08T14:47:55.131Z,10.93
2019-02-08T14:50:28.633Z,12.70
2019-02-08T14:52:57.203Z,11.07
2019-02-08T14:55:25.587Z,14.17
2019-02-08T14:58:01.694Z,9.90
2019-02-08T15:00:30.059Z,4.77
2019-02-08T15:02:58.427Z,8.23
2019-02-08T15:05:26.829Z,8.67
2019-02-08T15:07:55.196Z,8.20
2019-02-08T15:10:38.008Z,8.40
2019-02-08T15:13:06.386Z,13.77
2019-02-08T15:15:35.094Z,8.93
2019-02-08T15:18:03.832Z,4.60
2019-02-08T15:20:33.939Z,9.73
2019-02-08T15:23:02.680Z,12.40
2019-02-08T15:25:31.055Z,6.50
2019-02-08T15:27:59.390Z,8.60
2019-02-08T15:30:29.814Z,13.63
2019-02-08T15:32:58.210Z,10.73
2019-02-08T15:35:28.753Z,11.63
2019-02-08T15:37:57.128Z,6.27
2019-02-08T15:40:33.901Z,5.70
2019-02-08T15:43:02.279Z,11.90
2019-02-08T15:45:30.716Z,7.00
2019-02-08T15:47:59.173Z,8.43
2019-02-08T15:50:27.536Z,12.97
2019-02-08T15:52:56.121Z,8.03
2019-02-08T15:55:36.011Z,10.23
2019-02-08T15:58:04.508Z,10.27
2019-02-08T16:00:32.863Z,8.50
2019-02-08T16:03:02.809Z,13.13
2019-02-08T16:05:31.574Z,10.00
2019-02-08T16:08:01.590Z,10.67
2019-02-08T16:10:30.034Z,10.73
2019-02-08T16:12:58.359Z,8.97
2019-02-08T16:15:30.410Z,13.07
2019-02-08T16:17:58.785Z,8.53
2019-02-08T16:20:30.457Z,12.17
2019-02-08T16:22:59.808Z,9.03
2019-02-08T16:25:31.230Z,8.17
2019-02-08T16:27:59.655Z,9.20
2019-02-08T16:30:33.015Z,10.47
2019-02-08T16:33:01.443Z,9.77
2019-02-08T16:35:29.758Z,11.10
2019-02-08T16:37:58.140Z,13.43
2019-02-08T16:40:28.343Z,11.33
2019-02-08T16:42:56.768Z,12.23
2019-02-08T16:45:27.311Z,5.70
2019-02-08T16:47:56.104Z,9.03
2019-02-08T16:50:29.239Z,13.17
2019-02-08T16:52:57.644Z,10.13
2019-02-08T16:55:26.091Z,11.37
2019-02-08T16:57:54.801Z,6.43
2019-02-08T17:00:28.857Z,7.63
2019-02-08T17:02:58.930Z,10.67
2019-02-08T17:05:28.625Z,8.90
2019-02-08T17:07:57.191Z,7.70
2019-02-08T17:10:25.890Z,8.43
2019-02-08T17:12:54.792Z,15.13
2019-02-08T17:15:28.085Z,9.83
2019-02-08T17:17:56.479Z,9.90
2019-02-08T17:20:27.268Z,7.37
2019-02-08T17:22:55.598Z,7.50
2019-02-08T17:25:23.973Z,5.87
2019-02-08T17:27:55.500Z,10.63
2019-02-08T17:30:22.343Z,8.10
2019-02-08T17:32:50.722Z,9.17
2019-02-08T17:35:21.330Z,11.77
2019-02-08T17:37:49.700Z,7.00
2019-02-08T17:40:20.821Z,11.43
2019-02-08T17:42:49.216Z,4.40
2019-02-08T17:45:19.355Z,7.73
2019-02-08T17:47:48.072Z,6.87
2019-02-08T17:50:18.324Z,8.83
2019-02-08T17:52:46.899Z,7.40
2019-02-08T17:55:18.327Z,9.87
2019-02-08T17:57:46.691Z,7.40
2019-02-08T18:00:24.826Z,9.23
2019-02-08T18:02:53.209Z,8.60
2019-02-08T18:05:21.640Z,9.37
2019-02-08T18:07:50.026Z,7.00
2019-02-08T18:10:23.842Z,8.80
2019-02-08T18:12:52.551Z,9.70
2019-02-08T18:15:25.095Z,7.37
2019-02-08T18:17:53.485Z,4.87
2019-02-08T18:20:28.103Z,7.17
2019-02-08T18:22:56.476Z,8.00
2019-02-08T18:25:24.848Z,10.07
2019-02-08T18:27:53.213Z,5.33
2019-02-08T18:30:24.218Z,8.17
2019-02-08T18:32:52.577Z,11.07
2019-02-08T18:35:20.916Z,8.83
2019-02-08T18:37:49.296Z,8.00
2019-02-08T18:40:19.487Z,9.00
2019-02-08T18:42:47.896Z,9.63
2019-02-08T18:45:21.117Z,5.27
2019-02-08T18:47:49.492Z,7.47
2019-02-08T18:50:32.545Z,7.17
2019-02-08T18:53:00.925Z,11.27
2019-02-08T18:55:29.321Z,10.87
2019-02-08T18:57:57.677Z,11.37
2019-02-08T19:00:28.917Z,7.93
2019-02-08T19:02:57.743Z,11.77
2019-02-08T19:05:26.209Z,11.50
2019-02-08T19:07:54.526Z,11.70
2019-02-08T19:10:23.557Z,11.53
2019-02-08T19:12:51.956Z,8.77
2019-02-08T19:15:22.155Z,8.87
2019-02-08T19:17:50.443Z,9.43
2019-02-08T19:20:24.476Z,9.40
2019-02-08T19:22:52.850Z,10.67
2019-02-08T19:25:33.420Z,8.93
2019-02-08T19:28:01.796Z,13.03
2019-02-08T19:30:32.977Z,9.27
2019-02-08T19:33:01.365Z,10.60
2019-02-08T19:35:29.749Z,14.57
2019-02-08T19:37:58.072Z,9.97
2019-02-08T19:40:31.822Z,11.13
2019-02-08T19:43:00.224Z,13.30
2019-02-08T19:45:28.987Z,12.43
2019-02-08T19:47:57.365Z,11.53
2019-02-08T19:50:31.263Z,11.03
2019-02-08T19:52:59.965Z,8.80
2019-02-08T19:55:28.494Z,10.10
2019-02-08T19:57:56.806Z,9.23
2019-02-08T20:00:31.043Z,14.57
2019-02-08T20:02:59.495Z,15.90
2019-02-08T20:05:27.792Z,13.63
2019-02-08T20:07:56.850Z,9.33
2019-02-08T20:10:27.564Z,14.53
2019-02-08T20:12:55.936Z,13.63
2019-02-08T20:15:24.325Z,14.93
2019-02-08T20:17:55.730Z,14.03
2019-02-08T20:20:24.083Z,14.27
2019-02-08T20:22:52.436Z,9.67
2019-02-08T20:25:28.787Z,14.77
2019-02-08T20:27:57.217Z,16.17
2019-02-08T20:30:27.147Z,15.40
2019-02-08T20:32:55.525Z,13.70
2019-02-08T20:35:25.277Z,14.70
2019-02-08T20:37:53.809Z,12.90
2019-02-08T20:40:25.375Z,17.73
2019-02-08T20:42:53.762Z,16.67
2019-02-08T20:45:24.724Z,10.27
2019-02-08T20:47:53.561Z,14.97
2019-02-08T20:50:22.821Z,11.17
2019-02-08T20:52:51.459Z,20.60
2019-02-08T20:55:19.988Z,15.90
2019-02-08T20:57:48.388Z,13.53
2019-02-08T21:00:27.106Z,14.33
2019-02-08T21:02:56.063Z,13.47
2019-02-08T21:05:24.371Z,17.83
2019-02-08T21:07:52.756Z,14.70
2019-02-08T21:10:21.145Z,17.37
2019-02-08T21:12:49.500Z,12.93
2019-02-08T21:15:22.520Z,16.23
2019-02-08T21:17:50.893Z,13.23
2019-02-08T21:20:19.907Z,19.13
2019-02-08T21:22:48.665Z,14.57
2019-02-08T21:25:23.300Z,11.67
2019-02-08T21:27:51.670Z,18.03
2019-02-08T21:30:20.030Z,13.73
2019-02-08T21:32:48.424Z,14.93
2019-02-08T21:35:18.424Z,19.23
2019-02-08T21:37:46.781Z,14.90
2019-02-08T21:40:23.785Z,17.47
2019-02-08T21:42:52.239Z,17.77
2019-02-08T21:45:35.093Z,14.20
2019-02-08T21:48:03.459Z,14.13
2019-02-08T21:50:31.756Z,18.50
2019-02-08T21:53:00.231Z,16.23
2019-02-08T21:55:29.210Z,11.27
2019-02-08T21:58:16.966Z,13.67
2019-02-08T22:00:45.376Z,12.33
2019-02-08T22:03:13.772Z,14.13
2019-02-08T22:05:58.026Z,13.67
2019-02-08T22:08:26.435Z,15.13
2019-02-08T22:10:54.793Z,11.40
2019-02-08T22:13:23.076Z,14.53
2019-02-08T22:15:51.399Z,17.27
2019-02-08T22:18:19.776Z,10.33
2019-02-08T22:20:48.867Z,9.63
2019-02-08T22:23:17.229Z,7.73
2019-02-08T22:25:45.626Z,6.50
2019-02-08T22:28:14.400Z,13.60
2019-02-08T22:30:42.774Z,10.10
2019-02-08T22:33:11.323Z,9.53
2019-02-08T22:35:39.675Z,12.13
2019-02-08T22:38:09.091Z,7.80
2019-02-08T22:40:37.701Z,11.83
2019-02-08T22:43:06.370Z,8.47
2019-02-08T22:45:36.669Z,11.57
2019-02-08T22:48:05.489Z,6.93
2019-02-08T22:50:33.870Z,6.93
2019-02-08T22:53:02.259Z,5.13
2019-02-08T22:55:32.820Z,3.60
2019-02-08T22:58:01.145Z,3.70
2019-02-08T23:00:37.048Z,5.00
2019-02-08T23:03:10.068Z,5.13
2019-02-08T23:05:45.366Z,2.60
2019-02-08T23:08:10.520Z,3.07
2019-02-08T23:10:44.436Z,3.30
2019-02-08T23:13:16.879Z,2.73
2019-02-08T23:15:47.021Z,2.10
2019-02-08T23:18:20.759Z,2.10
2019-02-08T23:20:57.771Z,1.60
2019-02-08T23:23:29.757Z,1.97
2019-02-08T23:25:59.947Z,1.20
2019-02-08T23:28:28.317Z,3.80
2019-02-08T23:30:56.845Z,4.40
2019-02-08T23:33:26.416Z,2.47
2019-02-08T23:35:59.211Z,5.73
2019-02-08T23:38:33.628Z,4.43
2019-02-08T23:41:03.851Z,1.63
2019-02-08T23:43:34.141Z,5.30
2019-02-08T23:46:04.418Z,4.67
2019-02-08T23:48:42.922Z,3.47
2019-02-08T23:51:11.325Z,11.33
2019-02-08T23:53:40.746Z,6.83
2019-02-08T23:56:10.342Z,7.57
2019-02-08T23:58:41.072Z,7.70
